Time;durP1;ratioP1;P1;durP2;ratioP2;P2;SDS_P1;SDS_P2;PMS_P1;PMS_P2;Temp;Humidity;BMP_temperature;BMP_pressure;BME280_temperature;BME280_humidity;BME280_pressure;Samples;Min_cycle;Max_cycle;Signal;HPM_P1;HPM_P2
2022/08/12 00:43:59;;;;;;;16.17;13.93;;;17.30;99.90;;;;;;5052567;28;20049;-46
2022/08/12 00:46:35;;;;;;;16.77;13.60;;;17.40;99.90;;;;;;5053509;28;20084;-46
2022/08/12 00:49:03;;;;;;;15.40;13.90;;;16.00;99.90;;;;;;5050860;28;20040;-46
2022/08/12 00:54:15;;;;;;;16.27;14.60;;;17.30;99.90;;;;;;5052950;28;20135;-47
2022/08/12 00:56:41;;;;;;;15.68;13.20;;;17.40;99.90;;;;;;5052393;28;20529;-44
2022/08/12 00:59:08;;;;;;;16.08;14.20;;;18.10;99.90;;;;;;5051224;28;20129;-48
2022/08/12 01:01:35;;;;;;;17.38;14.70;;;17.30;99.90;;;;;;5052369;28;20517;-42
2022/08/12 01:12:24;;;;;;;16.10;13.82;;;17.90;99.90;;;;;;5052650;28;20477;-45
2022/08/12 01:14:53;;;;;;;19.73;13.45;;;17.60;99.90;;;;;;5051596;28;20033;-46
2022/08/12 01:17:21;;;;;;;18.52;13.98;;;17.20;99.90;;;;;;5050861;28;20053;-42
2022/08/12 01:19:51;;;;;;;14.25;12.77;;;17.20;99.90;;;;;;5056238;28;20048;-47
2022/08/12 01:22:33;;;;;;;16.52;13.15;;;17.20;99.90;;;;;;5057335;28;20048;-46
2022/08/12 01:25:01;;;;;;;;;;;17.20;99.90;;;;;;5058329;28;20047;-45
2022/08/12 01:27:29;;;;;;;15.10;13.02;;;17.00;99.90;;;;;;5055674;28;19924;-44
2022/08/12 01:29:56;;;;;;;15.75;12.90;;;18.90;99.90;;;;;;5056344;28;20071;-46
2022/08/12 01:32:25;;;;;;;16.27;12.93;;;17.40;99.90;;;;;;5055686;28;20059;-45
2022/08/12 01:35:03;;;;;;;17.05;13.43;;;17.00;99.90;;;;;;5056573;28;20070;-43
2022/08/12 01:37:32;;;;;;;15.73;12.93;;;17.20;99.90;;;;;;5056066;28;20048;-44
2022/08/12 01:40:00;;;;;;;14.15;12.57;;;17.10;99.90;;;;;;5056646;28;20505;-41
2022/08/12 01:42:30;;;;;;;14.85;12.07;;;16.90;99.90;;;;;;5055132;28;20041;-44
2022/08/12 01:44:57;;;;;;;15.35;12.07;;;18.00;99.90;;;;;;5055491;28;20036;-48
2022/08/12 01:47:41;;;;;;;15.93;12.32;;;17.90;99.90;;;;;;5055694;28;20368;-45
2022/08/12 01:50:50;;;;;;;14.20;11.50;;;16.90;99.90;;;;;;5054742;28;20041;-48
2022/08/12 01:53:19;;;;;;;14.55;11.98;;;17.10;99.90;;;;;;4974207;28;20085;-45
2022/08/12 01:55:48;;;;;;;13.35;11.63;;;16.90;99.90;;;;;;4974673;28;20120;-47
2022/08/12 01:59:45;;;;;;;17.75;11.93;;;18.30;99.90;;;;;;4975086;28;20051;-46
2022/08/12 02:01:23;;;;;;;13.15;11.45;;;16.90;99.90;;;;;;4973553;28;20136;-43
2022/08/12 02:11:23;;;;;;;14.63;10.65;;;16.80;99.90;;;;;;4913109;29;20060;-46
2022/08/12 02:14:27;;;;;;;13.82;11.50;;;16.70;99.90;;;;;;4855559;29;20064;-44
2022/08/12 02:17:44;;;;;;;14.43;10.38;;;16.70;99.90;;;;;;4855876;29;20422;-46
2022/08/12 02:20:37;;;;;;;16.88;10.93;;;16.80;99.90;;;;;;4760036;29;20430;-46
2022/08/12 02:23:05;;;;;;;12.57;10.52;;;16.70;99.90;;;;;;4758561;29;20082;-46
2022/08/12 02:25:40;;;;;;;16.45;11.07;;;17.10;99.90;;;;;;4761920;29;20077;-43
2022/08/12 02:28:06;;;;;;;11.98;10.68;;;18.30;99.90;;;;;;4761546;29;20089;-47
2022/08/12 02:30:35;;;;;;;12.85;10.05;;;16.50;99.90;;;;;;4762928;29;20059;-47
2022/08/12 02:33:03;;;;;;;14.80;10.93;;;17.60;99.90;;;;;;4783419;29;20662;-44
2022/08/12 02:35:31;;;;;;;16.77;10.93;;;16.50;99.90;;;;;;4784712;29;20177;-44
2022/08/12 02:37:59;;;;;;;14.43;11.27;;;18.20;99.90;;;;;;4785322;29;20054;-47
2022/08/12 02:40:27;;;;;;;13.48;10.60;;;16.70;99.90;;;;;;4794233;29;20882;-45
2022/08/12 02:43:11;;;;;;;12.05;10.85;;;16.60;99.90;;;;;;4840774;29;20223;-46
2022/08/12 02:45:52;;;;;;;13.02;10.82;;;16.40;99.90;;;;;;4857310;29;20130;-47
2022/08/12 02:48:38;;;;;;;12.93;10.90;;;16.40;99.90;;;;;;4895384;29;20139;-44
2022/08/12 02:51:08;;;;;;;14.52;10.82;;;16.30;99.90;;;;;;4942916;28;20046;-45
2022/08/12 02:53:36;;;;;;;12.25;10.65;;;18.40;99.90;;;;;;4947853;28;20130;-47
2022/08/12 02:56:04;;;;;;;15.68;11.20;;;16.40;99.90;;;;;;4952031;28;20050;-45
2022/08/12 02:58:33;;;;;;;13.93;11.18;;;16.20;99.90;;;;;;5054121;28;20200;-44
2022/08/12 03:01:03;;;;;;;14.60;11.63;;;16.40;99.90;;;;;;5054360;28;20036;-45
2022/08/12 03:03:33;;;;;;;13.75;11.63;;;16.50;99.90;;;;;;5055330;28;20425;-44
2022/08/12 03:06:27;;;;;;;13.15;10.63;;;16.50;99.90;;;;;;5056030;28;20041;-47
2022/08/12 03:08:57;;;;;;;13.63;11.70;;;16.30;99.90;;;;;;5052050;28;20409;-47
2022/08/12 03:11:35;;;;;;;14.68;10.55;;;16.50;99.90;;;;;;5054972;28;20155;-44
2022/08/12 03:14:02;;;;;;;13.20;9.73;;;16.20;99.90;;;;;;5051765;28;21060;-44
2022/08/12 03:16:31;;;;;;;15.60;10.73;;;16.20;99.90;;;;;;5053310;28;20281;-45
2022/08/12 03:18:58;;;;;;;15.75;10.75;;;16.20;99.90;;;;;;5053265;28;20047;-45
2022/08/12 03:21:24;;;;;;;16.40;12.27;;;17.60;99.90;;;;;;5055666;28;20048;-47
2022/08/12 03:23:53;;;;;;;14.75;11.27;;;16.30;99.90;;;;;;5053593;28;20378;-45
2022/08/12 03:26:24;;;;;;;16.45;11.13;;;16.30;99.90;;;;;;5085178;28;20475;-47
2022/08/12 03:28:56;;;;;;;14.45;11.60;;;16.10;99.90;;;;;;5052873;28;20497;-42
2022/08/12 03:31:29;;;;;;;15.85;11.23;;;16.20;99.90;;;;;;5053485;28;20037;-47
2022/08/12 03:34:01;;;;;;;17.50;12.50;;;17.20;99.90;;;;;;5052781;28;20036;-45
2022/08/12 03:36:29;;;;;;;15.35;11.93;;;16.30;99.90;;;;;;5053200;28;20795;-41
2022/08/12 03:41:59;;;;;;;14.95;11.65;;;16.20;99.90;;;;;;5084642;28;20048;-47
2022/08/12 04:01:17;;;;;;;15.18;12.45;;;16.30;99.90;;;;;;5053623;28;20068;-47
2022/08/12 04:03:52;;;;;;;18.35;12.75;;;16.20;99.90;;;;;;5053359;28;20203;-46
2022/08/12 04:06:27;;;;;;;20.75;13.88;;;16.40;99.90;;;;;;5053788;28;20033;-44
2022/08/12 04:08:56;;;;;;;18.08;13.65;;;16.10;99.90;;;;;;5054175;28;20040;-45
2022/08/12 04:14:10;;;;;;;20.13;13.65;;;16.00;99.90;;;;;;5053899;28;20416;-44
2022/08/12 04:16:37;;;;;;;20.60;13.60;;;16.10;99.90;;;;;;5054003;28;20724;-44
2022/08/12 04:19:03;;;;;;;15.00;13.23;;;16.30;99.90;;;;;;5054478;28;20524;-44
2022/08/12 04:21:32;;;;;;;19.33;13.68;;;16.00;99.90;;;;;;5053931;28;20238;-48
2022/08/12 04:23:59;;;;;;;17.83;13.75;;;16.00;99.90;;;;;;5053487;28;20045;-49
2022/08/12 04:26:26;;;;;;;14.75;12.98;;;14.50;99.90;;;;;;5053894;28;20040;-46
2022/08/12 04:28:58;;;;;;;17.65;13.55;;;16.90;99.90;;;;;;5053288;28;20048;-47
2022/08/12 04:31:30;;;;;;;19.65;13.48;;;15.90;99.90;;;;;;5054112;28;20089;-46
2022/08/12 04:33:58;;;;;;;17.70;12.60;;;17.80;99.90;;;;;;5053587;28;20040;-45
2022/08/12 04:36:24;;;;;;;16.42;13.63;;;15.80;99.90;;;;;;5053186;28;21568;-43
2022/08/12 04:38:51;;;;;;;17.30;12.88;;;16.00;99.90;;;;;;5053561;28;20041;-44
2022/08/12 04:41:18;;;;;;;18.75;13.25;;;16.30;99.90;;;;;;5053024;28;20045;-42
2022/08/12 04:43:44;;;;;;;15.60;13.23;;;16.10;99.90;;;;;;5052403;28;20055;-42
2022/08/12 04:46:10;;;;;;;15.02;12.57;;;17.30;99.90;;;;;;5052392;28;20033;-41
2022/08/12 04:48:36;;;;;;;15.52;12.50;;;15.90;99.90;;;;;;5053676;28;20602;-42
2022/08/12 04:51:02;;;;;;;18.27;12.40;;;16.00;99.90;;;;;;5051897;28;20434;-42
2022/08/12 04:53:28;;;;;;;13.98;12.38;;;16.10;99.90;;;;;;5056255;28;20055;-41
2022/08/12 04:55:59;;;;;;;16.25;12.27;;;16.00;99.90;;;;;;5055943;28;20037;-40
2022/08/12 04:58:25;;;;;;;14.85;12.63;;;16.20;99.90;;;;;;5057701;28;20032;-40
2022/08/12 05:00:51;;;;;;;17.88;12.25;;;16.30;99.90;;;;;;5056800;28;20067;-40
2022/08/12 05:03:17;;;;;;;13.52;11.35;;;17.20;99.90;;;;;;5056055;28;20697;-40
2022/08/12 05:05:43;;;;;;;13.73;10.55;;;16.20;99.90;;;;;;5054482;28;20135;-40
2022/08/12 05:08:16;;;;;;;14.73;11.15;;;16.20;99.90;;;;;;5056981;28;20044;-40
2022/08/12 05:10:45;;;;;;;16.77;12.07;;;16.90;99.90;;;;;;5056431;28;20055;-40
2022/08/12 05:13:22;;;;;;;14.32;10.75;;;17.00;99.90;;;;;;5057354;28;20041;-40
2022/08/12 05:15:48;;;;;;;14.93;11.15;;;16.20;99.90;;;;;;5055985;28;20055;-39
2022/08/12 05:18:14;;;;;;;14.85;10.98;;;16.70;99.90;;;;;;5056552;28;20047;-40
2022/08/12 05:20:42;;;;;;;11.90;10.38;;;16.80;99.90;;;;;;5054878;28;20036;-40
2022/08/12 05:23:10;;;;;;;12.32;10.13;;;16.90;99.90;;;;;;5055257;28;20101;-41
2022/08/12 05:25:36;;;;;;;14.70;9.73;;;18.50;99.90;;;;;;5055399;28;20574;-40
2022/08/12 05:28:06;;;;;;;12.70;9.40;;;16.60;99.90;;;;;;5055036;28;20057;-42
2022/08/12 05:30:33;;;;;;;14.65;9.02;;;16.90;99.90;;;;;;5055576;28;20040;-40
2022/08/12 05:33:05;;;;;;;15.63;10.00;;;16.60;99.90;;;;;;5056692;28;20044;-40
2022/08/12 05:35:38;;;;;;;12.90;9.35;;;16.90;99.90;;;;;;5055806;28;20532;-39
2022/08/12 05:40:49;;;;;;;10.93;9.73;;;17.40;99.90;;;;;;5056386;28;20055;-42
2022/08/12 05:43:16;;;;;;;13.77;9.07;;;17.20;99.90;;;;;;5056980;28;20505;-40
2022/08/12 05:45:43;;;;;;;13.80;9.00;;;17.40;99.90;;;;;;5055859;28;20059;-40
2022/08/12 05:48:08;;;;;;;14.30;8.43;;;17.50;99.90;;;;;;5056306;28;21249;-40
2022/08/12 05:50:35;;;;;;;15.65;8.07;;;17.70;99.90;;;;;;5056172;28;20530;-40
2022/08/12 05:53:01;;;;;;;11.32;8.05;;;17.80;99.90;;;;;;5054321;28;20037;-40
2022/08/12 05:55:27;;;;;;;10.82;7.60;;;18.00;99.90;;;;;;5054360;28;20465;-39
2022/08/12 05:57:54;;;;;;;9.05;7.07;;;20.10;99.90;;;;;;5054398;28;20402;-42
2022/08/12 06:00:24;;;;;;;13.75;6.63;;;18.10;99.90;;;;;;5037991;28;20040;-41
2022/08/12 06:02:55;;;;;;;9.90;6.07;;;20.10;99.90;;;;;;5054676;28;20040;-41
2022/08/12 06:05:21;;;;;;;10.38;6.20;;;18.60;99.90;;;;;;5054297;28;20042;-40
2022/08/12 06:07:48;;;;;;;12.05;6.70;;;18.80;99.90;;;;;;5053686;28;20067;-40
2022/08/12 06:10:16;;;;;;;10.85;5.57;;;19.00;99.90;;;;;;5053756;28;20102;-40
2022/08/12 06:12:44;;;;;;;8.52;5.60;;;20.30;98.30;;;;;;5056539;28;20079;-41
2022/08/12 06:15:10;;;;;;;7.93;5.20;;;19.90;94.30;;;;;;5055730;28;20040;-41
2022/08/12 06:17:38;;;;;;;7.43;5.22;;;19.80;90.00;;;;;;5053142;28;20033;-41
2022/08/12 06:20:04;;;;;;;7.30;4.82;;;20.00;90.40;;;;;;5053263;28;20117;-40
2022/08/12 06:22:29;;;;;;;11.20;4.95;;;20.10;85.20;;;;;;5055731;28;20036;-41
2022/08/12 06:24:59;;;;;;;12.45;4.88;;;20.50;79.90;;;;;;5054221;28;20048;-42
2022/08/12 06:27:24;;;;;;;7.22;4.35;;;20.80;69.40;;;;;;5053910;28;20712;-42
2022/08/12 06:29:51;;;;;;;7.45;4.50;;;20.80;65.30;;;;;;5053955;28;20099;-40
2022/08/12 06:32:16;;;;;;;8.35;3.72;;;21.00;64.60;;;;;;5054417;28;20051;-43
2022/08/12 06:34:42;;;;;;;12.25;4.07;;;21.30;57.30;;;;;;5054137;28;20127;-41
2022/08/12 06:37:09;;;;;;;7.88;3.45;;;21.20;50.80;;;;;;5053954;28;20040;-41
2022/08/12 06:39:36;;;;;;;8.70;3.30;;;21.30;38.10;;;;;;5054357;28;20082;-41
2022/08/12 06:44:49;;;;;;;6.60;3.28;;;21.50;14.50;;;;;;5054455;28;20055;-40
2022/08/12 06:47:17;;;;;;;7.68;3.00;;;21.70;17.50;;;;;;5053080;28;20055;-43
2022/08/12 06:49:43;;;;;;;11.15;3.83;;;21.70;19.10;;;;;;5052074;28;20408;-42
2022/08/12 06:52:10;;;;;;;5.00;2.58;;;22.30;99.90;;;;;;5054074;28;20541;-43
2022/08/12 06:54:36;;;;;;;11.32;3.03;;;23.00;99.90;;;;;;5052632;28;20056;-43
2022/08/12 06:57:02;;;;;;;4.97;2.40;;;24.00;99.90;;;;;;5052983;28;20174;-42
2022/08/12 06:59:27;;;;;;;4.82;2.38;;;24.90;99.90;;;;;;5054658;28;20028;-47
2022/08/12 07:01:54;;;;;;;5.90;2.47;;;26.20;99.90;;;;;;5053488;28;20664;-45
2022/08/12 07:04:20;;;;;;;7.60;2.40;;;26.90;99.90;;;;;;5053561;28;21108;-47
2022/08/12 07:06:46;;;;;;;14.07;2.83;;;27.40;99.90;;;;;;5054709;28;20535;-46
2022/08/12 07:09:13;;;;;;;9.10;2.80;;;28.40;99.90;;;;;;5052912;28;20119;-46
2022/08/12 07:11:43;;;;;;;7.25;2.50;;;28.80;99.90;;;;;;5053858;28;20068;-48
2022/08/12 07:14:08;;;;;;;10.40;3.35;;;29.40;99.90;;;;;;5054594;28;20063;-45
2022/08/12 07:16:52;;;;;;;7.18;2.47;;;29.70;99.90;;;;;;5052693;28;20501;-46
2022/08/12 07:19:19;;;;;;;4.43;2.30;;;30.20;99.90;;;;;;5053753;28;20129;-46
2022/08/12 07:21:46;;;;;;;5.63;2.30;;;30.60;99.90;;;;;;5052385;28;20558;-48
2022/08/12 07:24:11;;;;;;;5.30;2.30;;;31.10;99.90;;;;;;5053201;28;20127;-45
2022/08/12 07:26:40;;;;;;;7.88;2.42;;;31.90;99.40;;;;;;5054010;28;20059;-46
2022/08/12 07:29:08;;;;;;;6.18;2.20;;;32.20;98.10;;;;;;5050416;28;20224;-45
2022/08/12 07:31:36;;;;;;;8.65;2.08;;;32.20;97.00;;;;;;5050726;28;20037;-45
2022/08/12 07:34:04;;;;;;;4.47;2.03;;;32.60;96.80;;;;;;5052382;28;20854;-46
2022/08/12 07:36:32;;;;;;;7.43;1.92;;;33.30;95.90;;;;;;5052801;28;20131;-47
2022/08/12 07:38:58;;;;;;;9.80;2.35;;;33.10;95.00;;;;;;5055277;28;20048;-46
2022/08/12 07:41:28;;;;;;;5.60;1.98;;;33.70;93.70;;;;;;5053990;28;20090;-47
2022/08/12 07:43:58;;;;;;;5.65;2.10;;;33.20;93.00;;;;;;5054529;28;20076;-47
2022/08/12 07:46:33;;;;;;;4.80;1.80;;;32.30;93.00;;;;;;5054520;28;20041;-44
2022/08/12 07:49:03;;;;;;;5.70;1.95;;;31.40;93.00;;;;;;5055305;28;20049;-46
2022/08/12 07:51:29;;;;;;;7.35;2.35;;;30.40;95.10;;;;;;5055046;28;20045;-44
2022/08/12 07:53:57;;;;;;;6.57;1.80;;;30.00;96.00;;;;;;5054517;28;20514;-44
2022/08/12 07:56:23;;;;;;;5.82;1.92;;;29.80;95.90;;;;;;5053365;28;20064;-44
2022/08/12 07:58:49;;;;;;;5.13;1.70;;;29.40;96.30;;;;;;5053229;28;20127;-45
2022/08/12 08:01:20;;;;;;;6.53;1.90;;;28.70;96.90;;;;;;5053204;28;21695;-45
2022/08/12 08:06:32;;;;;;;4.82;1.98;;;27.70;97.80;;;;;;5054752;28;19962;-46
2022/08/12 08:08:59;;;;;;;8.73;2.13;;;27.50;98.10;;;;;;5054487;28;20135;-43
2022/08/12 08:14:10;;;;;;;5.47;1.90;;;27.00;99.10;;;;;;5054300;28;20041;-44
2022/08/12 08:16:39;;;;;;;10.20;2.30;;;27.00;99.40;;;;;;5053024;28;20701;-44
2022/08/12 08:19:18;;;;;;;7.13;2.10;;;26.60;99.90;;;;;;5053568;28;20408;-45
2022/08/12 08:21:45;;;;;;;6.03;2.30;;;26.40;99.90;;;;;;5054428;28;20040;-44
2022/08/12 08:24:13;;;;;;;6.53;2.20;;;26.40;99.90;;;;;;5054863;28;20044;-46
2022/08/12 08:26:44;;;;;;;6.90;2.15;;;26.20;99.90;;;;;;5053811;28;20036;-44
2022/08/12 08:29:12;;;;;;;6.18;2.00;;;26.10;99.90;;;;;;5054488;28;20040;-45
2022/08/12 08:31:42;;;;;;;7.47;2.20;;;25.70;99.90;;;;;;5054460;28;20147;-47
2022/08/12 08:34:11;;;;;;;8.18;2.40;;;26.10;99.90;;;;;;5054336;28;20497;-47
2022/08/12 08:36:38;;;;;;;7.10;2.25;;;26.20;99.90;;;;;;5054930;28;20045;-46
2022/08/12 08:39:05;;;;;;;4.97;2.20;;;26.30;99.90;;;;;;5053816;28;20044;-46
2022/08/12 08:44:15;;;;;;;6.03;2.15;;;26.20;99.90;;;;;;5054651;28;20515;-46
2022/08/12 08:46:43;;;;;;;5.90;2.22;;;26.10;99.90;;;;;;5053523;28;20041;-44
2022/08/12 08:49:10;;;;;;;8.90;2.50;;;26.10;99.90;;;;;;5053323;28;20071;-44
2022/08/12 08:51:37;;;;;;;7.68;2.20;;;26.10;99.90;;;;;;5053393;28;20110;-47
2022/08/12 08:54:05;;;;;;;5.82;2.10;;;25.90;99.90;;;;;;5053323;28;20054;-46
2022/08/12 08:56:32;;;;;;;5.95;2.08;;;26.10;99.90;;;;;;5053515;28;20049;-45
2022/08/12 08:58:58;;;;;;;5.97;2.35;;;26.10;99.90;;;;;;5053918;28;20036;-45
2022/08/12 09:01:24;;;;;;;5.93;1.92;;;26.00;99.90;;;;;;5053779;28;20041;-43
2022/08/12 09:03:51;;;;;;;8.82;2.22;;;26.10;99.90;;;;;;5052898;28;20055;-45
2022/08/12 09:06:18;;;;;;;5.88;2.10;;;26.10;99.90;;;;;;5053577;28;20033;-43
2022/08/12 09:08:45;;;;;;;6.07;1.98;;;26.00;99.90;;;;;;5052454;28;20750;-45
2022/08/12 09:13:55;;;;;;;11.20;2.35;;;26.00;99.90;;;;;;5053000;28;20155;-47
2022/08/12 09:16:21;;;;;;;7.30;2.10;;;26.30;99.90;;;;;;5053218;28;20041;-44
2022/08/12 09:18:47;;;;;;;5.72;2.15;;;26.30;99.90;;;;;;5052417;28;20139;-45
2022/08/12 09:21:13;;;;;;;6.50;2.60;;;26.20;99.90;;;;;;5053297;28;20477;-44
2022/08/12 09:23:40;;;;;;;5.18;1.88;;;26.10;99.90;;;;;;5053952;28;20036;-46
2022/08/12 09:26:08;;;;;;;8.50;1.90;;;26.80;99.40;;;;;;5052152;28;20097;-45
2022/08/12 09:28:35;;;;;;;9.93;2.22;;;26.40;98.70;;;;;;5050710;28;20059;-44
2022/08/12 09:31:03;;;;;;;6.50;1.77;;;26.50;98.50;;;;;;5051998;28;20049;-44
2022/08/12 09:33:34;;;;;;;6.60;1.70;;;26.60;98.70;;;;;;5054058;28;20052;-47
2022/08/12 09:36:00;;;;;;;3.90;2.10;;;26.80;98.10;;;;;;5053722;28;20445;-47
2022/08/12 09:38:28;;;;;;;4.43;2.10;;;26.70;98.70;;;;;;5053351;28;21247;-43
2022/08/12 09:40:56;;;;;;;4.97;2.00;;;26.90;97.90;;;;;;5058485;28;20052;-45
2022/08/12 09:46:07;;;;;;;9.98;2.13;;;27.60;96.70;;;;;;5057454;28;20139;-43
2022/08/12 09:48:33;;;;;;;10.40;1.85;;;27.40;96.50;;;;;;5057093;28;20098;-43
2022/08/12 09:50:59;;;;;;;6.22;2.10;;;27.60;96.60;;;;;;5057245;28;20041;-47
2022/08/12 09:53:25;;;;;;;6.07;1.88;;;27.90;97.30;;;;;;5058389;28;20084;-44
2022/08/12 09:55:54;;;;;;;6.13;2.17;;;27.80;96.60;;;;;;5058170;28;20051;-46
2022/08/12 09:58:27;;;;;;;9.45;2.08;;;28.10;96.60;;;;;;5056515;28;20055;-46
2022/08/12 10:00:54;;;;;;;6.03;1.95;;;28.30;95.90;;;;;;5055054;28;20037;-45
2022/08/12 10:03:20;;;;;;;5.82;2.33;;;28.30;95.40;;;;;;5055256;28;20627;-47
2022/08/12 10:05:47;;;;;;;9.15;1.77;;;28.50;95.90;;;;;;5055584;28;20041;-46
2022/08/12 10:08:15;;;;;;;7.30;2.20;;;28.80;95.50;;;;;;5055634;28;20033;-44
2022/08/12 10:13:41;;;;;;;7.32;2.20;;;28.80;95.50;;;;;;5056711;28;20287;-44
2022/08/12 10:16:17;;;;;;;6.80;1.80;;;29.00;94.30;;;;;;5055746;28;20040;-47
2022/08/12 10:18:56;;;;;;;5.05;2.00;;;29.30;93.50;;;;;;5055989;28;20575;-47
2022/08/12 10:21:29;;;;;;;5.28;1.98;;;29.30;93.00;;;;;;5056265;28;20500;-45
2022/08/12 10:23:56;;;;;;;5.55;2.00;;;29.50;94.00;;;;;;5055701;28;20338;-47
2022/08/12 10:31:54;;;;;;;5.47;1.98;;;29.70;91.60;;;;;;5055364;28;20056;-46
2022/08/12 10:34:23;;;;;;;5.93;1.85;;;29.90;90.50;;;;;;5055676;28;20048;-47
2022/08/12 10:36:57;;;;;;;5.10;1.90;;;30.20;90.80;;;;;;5055674;28;20759;-47
2022/08/12 10:39:27;;;;;;;6.05;1.83;;;30.20;90.60;;;;;;5054648;28;20040;-46
2022/08/12 10:44:40;;;;;;;7.90;2.20;;;30.50;89.70;;;;;;5056195;28;20077;-47
2022/08/12 10:47:06;;;;;;;5.80;1.85;;;30.30;88.80;;;;;;5054758;28;20566;-44
2022/08/12 10:49:33;;;;;;;5.93;1.77;;;30.40;89.00;;;;;;5054972;28;20045;-45
2022/08/12 10:52:01;;;;;;;4.88;1.85;;;30.50;86.90;;;;;;5055050;28;20041;-47
2022/08/12 10:54:27;;;;;;;4.32;1.55;;;30.60;86.70;;;;;;5052996;28;20537;-44
2022/08/12 10:59:30;;;;;;;6.72;2.25;;;30.60;87.30;;;;;;5068901;27;20489;-55
2022/08/12 11:01:57;;;;;;;6.45;1.95;;;30.30;86.00;;;;;;5068228;28;20056;-53
2022/08/12 11:04:24;;;;;;;5.78;1.80;;;30.60;87.60;;;;;;5068125;28;20159;-52
2022/08/12 11:06:52;;;;;;;7.47;2.00;;;30.90;89.00;;;;;;5068577;28;20044;-56
2022/08/12 11:09:20;;;;;;;5.43;2.08;;;31.00;88.10;;;;;;5067842;28;20128;-47
2022/08/12 11:11:50;;;;;;;4.05;1.73;;;31.20;87.70;;;;;;5067216;28;20066;-50
2022/08/12 11:14:27;;;;;;;6.03;1.87;;;31.20;86.30;;;;;;5068507;28;20040;-49
2022/08/12 11:16:56;;;;;;;7.45;1.90;;;31.30;84.70;;;;;;5069934;28;20684;-49
2022/08/12 11:19:24;;;;;;;8.93;2.00;;;31.00;86.60;;;;;;5069541;28;20667;-49
2022/08/12 11:21:51;;;;;;;6.90;1.70;;;31.20;87.50;;;;;;5068702;28;20188;-54
2022/08/12 11:24:17;;;;;;;5.45;1.90;;;31.20;86.50;;;;;;5067963;28;20064;-56
2022/08/12 11:26:44;;;;;;;6.07;1.98;;;31.30;85.50;;;;;;5067715;28;20045;-57
2022/08/12 11:29:10;;;;;;;6.90;1.55;;;31.10;84.30;;;;;;5070994;28;20040;-53
2022/08/12 11:31:36;;;;;;;4.88;1.80;;;31.10;84.00;;;;;;5069344;28;20515;-51
2022/08/12 11:34:01;;;;;;;4.60;1.63;;;31.10;84.90;;;;;;5069478;28;20125;-55
2022/08/12 11:36:27;;;;;;;5.13;1.67;;;31.20;84.40;;;;;;5070835;28;20040;-56
2022/08/12 11:38:53;;;;;;;8.27;2.17;;;31.30;83.40;;;;;;5069247;28;20117;-55
2022/08/12 11:41:20;;;;;;;4.85;1.75;;;31.20;83.20;;;;;;5069197;28;20048;-53
2022/08/12 11:43:45;;;;;;;10.95;1.60;;;30.90;84.20;;;;;;5069231;28;20077;-54
2022/08/12 11:46:11;;;;;;;3.92;1.67;;;31.20;85.70;;;;;;5070931;28;20048;-54
2022/08/12 11:48:40;;;;;;;7.28;2.25;;;31.20;85.10;;;;;;5068979;28;20044;-52
2022/08/12 11:51:06;;;;;;;4.40;1.58;;;31.20;84.60;;;;;;5068477;28;20420;-54
2022/08/12 11:53:33;;;;;;;6.93;1.88;;;31.40;83.20;;;;;;5068997;28;20152;-53
2022/08/12 11:55:59;;;;;;;4.90;1.77;;;31.60;83.60;;;;;;5069342;28;20046;-52
2022/08/12 11:58:24;;;;;;;8.75;1.98;;;31.50;83.30;;;;;;5067954;28;20516;-52
2022/08/12 12:00:50;;;;;;;3.58;2.30;;;31.70;81.80;;;;;;5068864;28;20074;-54
2022/08/12 12:03:18;;;;;;;4.78;1.67;;;31.40;81.40;;;;;;5069772;28;20452;-53
2022/08/12 12:05:44;;;;;;;4.57;1.70;;;31.40;82.30;;;;;;5068968;28;20040;-55
2022/08/12 12:08:21;;;;;;;4.45;1.83;;;31.30;82.10;;;;;;5069288;28;20044;-51
2022/08/12 12:10:49;;;;;;;5.28;1.90;;;31.10;79.80;;;;;;5055850;28;20040;-54
2022/08/12 12:13:15;;;;;;;8.07;1.80;;;31.40;82.00;;;;;;5054042;28;20046;-52
2022/08/12 12:15:42;;;;;;;5.72;2.00;;;31.40;81.70;;;;;;5056884;28;20036;-52
2022/08/12 12:18:23;;;;;;;5.05;1.60;;;31.40;82.90;;;;;;5056323;28;20043;-53
2022/08/12 12:20:50;;;;;;;6.85;1.90;;;31.50;84.20;;;;;;5056480;28;20285;-53
2022/08/12 12:23:16;;;;;;;7.32;1.40;;;31.60;81.90;;;;;;5057219;28;20045;-53
2022/08/12 12:25:42;;;;;;;3.47;1.50;;;31.60;82.60;;;;;;5054480;28;20029;-53
2022/08/12 12:28:08;;;;;;;7.20;1.60;;;31.70;80.50;;;;;;5055973;28;20526;-53
2022/08/12 12:30:34;;;;;;;5.90;1.55;;;31.40;80.40;;;;;;5055003;28;20120;-55
2022/08/12 12:33:00;;;;;;;11.55;1.88;;;31.70;80.40;;;;;;5054257;28;20454;-52
2022/08/12 12:35:26;;;;;;;6.78;1.60;;;31.30;80.20;;;;;;5054890;28;20043;-53
2022/08/12 12:37:53;;;;;;;6.57;1.73;;;31.50;80.40;;;;;;5055334;28;20296;-55
2022/08/12 12:40:19;;;;;;;4.85;1.50;;;31.40;80.80;;;;;;5054465;28;20067;-54
2022/08/12 12:42:45;;;;;;;4.47;1.60;;;31.30;80.30;;;;;;5053199;28;20042;-54
2022/08/12 12:45:12;;;;;;;4.00;1.80;;;31.30;81.40;;;;;;5054837;28;20044;-53
2022/08/12 12:47:55;;;;;;;4.72;1.70;;;31.40;79.90;;;;;;5053271;28;20079;-53
2022/08/12 12:50:21;;;;;;;12.02;1.90;;;31.30;80.10;;;;;;5054021;28;20341;-53
2022/08/12 12:52:47;;;;;;;4.90;1.60;;;31.30;80.40;;;;;;5054362;28;20040;-56
2022/08/12 12:55:14;;;;;;;7.57;1.80;;;31.10;79.90;;;;;;5054949;28;20067;-54
2022/08/12 12:57:41;;;;;;;5.97;1.65;;;31.10;81.20;;;;;;5054381;28;20061;-54
2022/08/12 13:00:15;;;;;;;4.22;1.83;;;31.10;81.50;;;;;;5053684;28;20057;-52
2022/08/12 13:02:51;;;;;;;5.47;1.77;;;31.10;81.10;;;;;;5054211;28;20043;-53
2022/08/12 13:05:28;;;;;;;3.90;1.70;;;31.10;82.20;;;;;;5055188;28;20048;-54
2022/08/12 13:07:57;;;;;;;3.05;1.50;;;29.40;77.90;;;;;;5053606;28;20036;-54
2022/08/12 13:10:24;;;;;;;6.38;1.70;;;31.20;82.00;;;;;;5053349;28;20055;-51
2022/08/12 13:12:51;;;;;;;3.35;1.42;;;31.20;82.70;;;;;;5054215;28;20123;-55
2022/08/12 13:15:17;;;;;;;4.63;1.48;;;31.20;81.00;;;;;;5055045;28;20036;-52
2022/08/12 13:17:52;;;;;;;5.78;1.48;;;31.20;83.60;;;;;;5053786;28;20515;-53
2022/08/12 13:20:20;;;;;;;6.85;1.60;;;31.20;82.70;;;;;;5052694;28;20070;-55
2022/08/12 13:22:47;;;;;;;3.58;1.55;;;31.30;81.80;;;;;;5052265;28;20381;-56
2022/08/12 13:25:14;;;;;;;3.72;1.60;;;31.20;80.60;;;;;;5053629;28;20688;-54
2022/08/12 13:27:47;;;;;;;6.25;2.30;;;31.00;80.20;;;;;;5054300;28;20066;-54
2022/08/12 13:30:15;;;;;;;6.03;2.03;;;31.10;81.30;;;;;;5053439;28;20044;-55
2022/08/12 13:32:49;;;;;;;4.50;1.80;;;31.00;80.80;;;;;;5053830;28;20070;-54
2022/08/12 13:35:16;;;;;;;3.88;1.50;;;31.10;81.60;;;;;;5053753;28;20047;-55
2022/08/12 13:37:43;;;;;;;3.55;1.63;;;31.10;81.40;;;;;;5053800;28;20555;-53
2022/08/12 13:40:11;;;;;;;4.30;1.40;;;31.00;80.50;;;;;;5053648;28;20044;-54
2022/08/12 13:42:40;;;;;;;6.95;1.67;;;30.90;80.70;;;;;;5054263;28;20036;-54
2022/08/12 13:45:06;;;;;;;5.25;1.73;;;31.20;79.50;;;;;;5055029;28;20497;-55
2022/08/12 13:47:55;;;;;;;4.55;1.75;;;31.20;80.80;;;;;;5053664;28;20493;-53
2022/08/12 13:50:42;;;;;;;2.55;1.42;;;31.20;80.00;;;;;;5052848;28;20385;-55
2022/08/12 13:53:12;;;;;;;2.67;1.20;;;30.90;79.10;;;;;;5053139;28;20596;-55
2022/08/12 13:55:42;;;;;;;7.00;1.30;;;30.90;78.70;;;;;;5051877;28;20409;-56
2022/08/12 13:58:10;;;;;;;7.32;1.77;;;30.70;79.20;;;;;;5051522;28;20052;-55
2022/08/12 14:00:36;;;;;;;5.82;1.40;;;30.70;79.30;;;;;;5052399;28;20512;-56
2022/08/12 14:03:02;;;;;;;4.68;1.60;;;30.90;79.90;;;;;;5053409;28;20055;-55
2022/08/12 14:05:28;;;;;;;4.53;1.40;;;31.00;79.20;;;;;;5052759;28;20049;-54
2022/08/12 14:08:06;;;;;;;5.80;1.35;;;31.00;78.80;;;;;;5051991;28;20098;-53
2022/08/12 14:10:38;;;;;;;6.57;1.42;;;31.00;78.50;;;;;;5050293;28;20099;-54
2022/08/12 14:13:10;;;;;;;10.80;1.60;;;31.10;80.50;;;;;;5052056;28;20055;-54
2022/08/12 14:15:51;;;;;;;7.00;1.63;;;31.10;79.80;;;;;;5053538;28;20105;-51
2022/08/12 14:18:23;;;;;;;3.88;1.50;;;31.00;85.60;;;;;;5053212;28;20492;-55
2022/08/12 14:20:53;;;;;;;6.43;1.40;;;30.90;84.30;;;;;;5052670;28;20040;-55
2022/08/12 14:23:19;;;;;;;5.07;1.30;;;31.30;81.50;;;;;;5053001;28;20047;-55
2022/08/12 14:25:46;;;;;;;7.10;1.50;;;31.00;79.20;;;;;;5050226;28;20028;-53
2022/08/12 14:28:17;;;;;;;6.32;1.25;;;30.70;79.00;;;;;;5051347;28;20083;-55
2022/08/12 14:30:44;;;;;;;4.68;1.25;;;31.00;81.00;;;;;;5051135;28;20066;-55
2022/08/12 14:33:14;;;;;;;5.50;1.50;;;30.70;80.40;;;;;;5052088;28;20513;-48
2022/08/12 14:35:42;;;;;;;6.55;1.40;;;30.50;78.70;;;;;;5053450;28;20045;-47
2022/08/12 14:38:19;;;;;;;4.25;1.60;;;30.50;82.90;;;;;;5052081;28;20127;-50
2022/08/12 14:40:46;;;;;;;2.40;1.30;;;30.60;84.10;;;;;;5052298;28;20616;-48
2022/08/12 14:43:13;;;;;;;5.88;1.38;;;30.80;82.70;;;;;;5051816;28;20044;-48
2022/08/12 14:45:39;;;;;;;2.30;1.27;;;30.60;82.20;;;;;;5053018;28;20040;-51
2022/08/12 14:48:05;;;;;;;8.10;1.70;;;30.70;84.60;;;;;;5052805;28;20068;-49